createdAt,value
2022-09-11T00:00:33.729Z,100.00
2022-09-11T00:04:32.785Z,99.60
2022-09-11T00:07:50.750Z,98.02
2022-09-11T00:11:30.714Z,95.67
2022-09-11T00:15:19.978Z,99.05
2022-09-11T00:18:52.082Z,98.38
2022-09-11T00:22:21.291Z,99.13
2022-09-11T00:25:19.571Z,96.25
2022-09-11T00:28:48.828Z,99.01
2022-09-11T00:32:09.170Z,99.51
2022-09-11T00:35:13.976Z,100.00
2022-09-11T00:38:17.982Z,100.00
2022-09-11T00:41:44.752Z,100.00
2022-09-11T00:45:33.859Z,100.00
2022-09-11T00:49:00.669Z,100.00
2022-09-11T00:52:12.431Z,100.00
2022-09-11T00:55:28.201Z,100.00
2022-09-11T00:58:59.247Z,100.00
2022-09-11T01:02:27.598Z,100.00
2022-09-11T01:06:16.336Z,99.25
2022-09-11T01:09:45.249Z,98.86
2022-09-11T01:13:11.676Z,99.81
2022-09-11T01:17:27.687Z,99.62
2022-09-11T01:21:32.459Z,98.80
2022-09-11T01:25:38.472Z,98.94
2022-09-11T01:29:21.142Z,98.91
2022-09-11T01:32:55.643Z,100.00
2022-09-11T01:36:19.812Z,100.00
2022-09-11T01:39:41.675Z,100.00
2022-09-11T01:43:05.626Z,100.00
2022-09-11T01:46:54.934Z,100.00
2022-09-11T01:50:40.037Z,100.00
2022-09-11T01:54:08.890Z,100.00
2022-09-11T01:57:37.654Z,99.87
2022-09-11T02:00:40.815Z,95.19
2022-09-11T02:03:48.146Z,94.11
2022-09-11T02:07:29.744Z,97.62
2022-09-11T02:11:21.582Z,99.39
2022-09-11T02:14:53.416Z,100.00
2022-09-11T02:18:37.288Z,100.00
2022-09-11T05:09:26.682Z,100.00
2022-09-11T05:13:20.161Z,100.00
2022-09-11T05:17:09.348Z,100.00
2022-09-11T05:20:57.054Z,100.00
2022-09-11T05:24:44.900Z,100.00
2022-09-11T05:28:34.115Z,100.00
2022-09-11T05:32:21.648Z,100.00
2022-09-11T05:36:09.286Z,100.00
2022-09-11T05:40:00.306Z,100.00
2022-09-11T05:43:48.310Z,100.00
2022-09-11T05:47:35.938Z,100.00
2022-09-11T05:51:23.658Z,100.00
2022-09-11T05:55:14.366Z,100.00
2022-09-11T05:59:02.440Z,100.00
2022-09-11T06:02:52.254Z,100.00
2022-09-11T06:06:41.627Z,100.00
2022-09-11T06:10:29.362Z,100.00
2022-09-11T06:14:18.363Z,100.00
2022-09-11T06:18:08.491Z,100.00
2022-09-11T06:22:03.300Z,100.00
2022-09-11T06:25:56.965Z,100.00
2022-09-11T06:29:45.053Z,100.00
2022-09-11T06:33:36.225Z,100.00
2022-09-11T06:37:12.930Z,100.00
2022-09-11T06:41:00.563Z,100.00
2022-09-11T06:44:50.753Z,100.00
2022-09-11T06:48:41.199Z,100.00
2022-09-11T06:51:54.125Z,100.00
2022-09-11T06:55:40.540Z,100.00
2022-09-11T06:59:10.839Z,100.00
2022-09-11T07:03:00.408Z,100.00
2022-09-11T07:06:47.982Z,100.00
2022-09-11T07:10:36.279Z,100.00
2022-09-11T07:14:17.942Z,100.00
2022-09-11T07:17:58.769Z,100.00
2022-09-11T07:21:19.425Z,100.00
2022-09-11T07:24:30.393Z,100.00
2022-09-11T07:28:03.476Z,100.00
2022-09-11T07:31:51.023Z,100.00
2022-09-11T07:35:01.796Z,100.00
2022-09-11T07:38:33.117Z,100.00
2022-09-11T07:42:05.332Z,100.00
2022-09-11T07:45:03.266Z,100.00
2022-09-11T07:48:51.614Z,100.00
2022-09-11T07:52:39.841Z,100.00
2022-09-11T07:56:00.286Z,100.00
2022-09-11T07:59:37.294Z,100.00
2022-09-11T08:03:05.613Z,100.00
2022-09-11T08:06:08.790Z,100.00
2022-09-11T08:08:59.781Z,100.00
2022-09-11T08:12:10.319Z,100.00
2022-09-11T08:15:58.284Z,100.00
2022-09-11T08:19:26.940Z,100.00
2022-09-11T08:22:04.057Z,100.00
2022-09-11T08:25:28.215Z,100.00
2022-09-11T08:29:05.739Z,100.00
2022-09-11T08:32:04.494Z,100.00
2022-09-11T08:35:21.575Z,100.00
2022-09-11T08:38:12.789Z,100.00
2022-09-11T08:41:12.259Z,100.00
2022-09-11T08:44:51.803Z,100.00
2022-09-11T08:48:08.753Z,100.00
2022-09-11T08:51:27.679Z,100.00
2022-09-11T08:55:04.811Z,100.00
2022-09-11T08:58:20.776Z,99.71
2022-09-11T09:01:57.520Z,97.41
2022-09-11T09:06:01.066Z,96.02
2022-09-11T09:09:57.704Z,94.31
2022-09-11T09:13:29.226Z,91.94
2022-09-11T09:17:35.273Z,88.82
2022-09-11T09:20:40.100Z,86.13
2022-09-11T09:24:06.814Z,88.09
2022-09-11T09:27:25.452Z,87.18
2022-09-11T09:30:29.519Z,87.74
2022-09-11T09:33:31.505Z,86.15
2022-09-11T09:37:03.007Z,85.56
2022-09-11T09:40:33.484Z,81.43
2022-09-11T09:44:07.921Z,82.03
2022-09-11T09:46:59.891Z,84.68
2022-09-11T09:50:10.356Z,85.60
2022-09-11T09:54:13.558Z,82.90
2022-09-11T09:57:42.709Z,74.64
2022-09-11T10:01:17.565Z,72.12
2022-09-11T10:04:59.004Z,71.41
2022-09-11T10:07:57.278Z,71.65
2022-09-11T10:10:57.771Z,67.04
2022-09-11T10:13:44.970Z,68.62
2022-09-11T10:16:48.064Z,68.22
2022-09-11T10:19:54.424Z,66.71
2022-09-11T10:23:31.839Z,66.91
2022-09-11T10:27:27.223Z,66.68
2022-09-11T10:31:02.967Z,66.39
2022-09-11T10:34:41.466Z,66.90
2022-09-11T10:37:56.784Z,64.38
2022-09-11T10:41:37.690Z,63.71
2022-09-11T10:45:27.003Z,61.88
2022-09-11T10:49:16.726Z,60.88
2022-09-11T10:53:11.238Z,60.59
2022-09-11T10:57:00.180Z,62.40
2022-09-11T11:00:49.089Z,62.61
2022-09-11T11:04:14.050Z,64.24
2022-09-11T11:08:01.755Z,65.29
2022-09-11T11:11:40.076Z,66.51
2022-09-11T11:15:22.130Z,67.13
2022-09-11T11:18:31.064Z,66.71
2022-09-11T11:22:15.763Z,67.91
2022-09-11T11:25:44.255Z,68.17
2022-09-11T11:29:12.094Z,66.80
2022-09-11T11:33:04.035Z,66.02
2022-09-11T11:37:11.769Z,64.51
2022-09-11T11:41:08.528Z,64.08
2022-09-11T11:44:35.454Z,64.95
2022-09-11T11:47:10.386Z,66.17
2022-09-11T11:50:37.274Z,68.31
2022-09-11T12:18:45.532Z,77.90
2022-09-11T12:22:08.700Z,73.86
2022-09-11T12:25:46.828Z,75.42
2022-09-11T12:29:11.633Z,75.79
2022-09-11T12:32:22.617Z,75.96
2022-09-11T12:35:57.680Z,75.65
2022-09-11T12:39:20.189Z,75.72
2022-09-11T12:43:08.573Z,76.12
2022-09-11T12:46:28.405Z,75.64
2022-09-11T12:49:48.762Z,76.03
2022-09-11T12:53:01.490Z,76.70
2022-09-11T12:56:08.183Z,76.84
2022-09-11T12:59:20.868Z,77.68
2022-09-11T13:01:49.362Z,77.78
2022-09-11T13:04:22.145Z,78.11
2022-09-11T13:06:54.300Z,79.13
2022-09-11T13:10:07.475Z,79.86
2022-09-11T13:12:55.335Z,80.00
2022-09-11T13:15:45.078Z,81.28
2022-09-11T13:19:04.903Z,81.52
2022-09-11T13:22:42.007Z,82.60
2022-09-11T13:26:12.894Z,82.93
2022-09-11T13:29:47.618Z,86.01
2022-09-11T13:33:38.707Z,91.65
2022-09-11T13:37:27.538Z,97.32
2022-09-11T13:40:45.221Z,96.64
2022-09-11T13:44:43.754Z,99.04
2022-09-11T13:48:23.950Z,96.32
2022-09-11T13:52:13.320Z,95.60
2022-09-11T13:56:05.544Z,92.76
2022-09-11T13:59:28.515Z,90.68
2022-09-11T14:03:10.087Z,89.88
2022-09-11T14:06:53.601Z,89.74
2022-09-11T14:10:02.499Z,89.23
2022-09-11T14:13:54.965Z,88.35
2022-09-11T14:17:42.614Z,85.76
2022-09-11T14:21:04.440Z,80.92
2022-09-11T14:23:52.365Z,81.10
2022-09-11T14:27:34.386Z,80.11
2022-09-11T14:31:14.689Z,80.21
2022-09-11T14:35:11.153Z,80.05
2022-09-11T14:38:42.311Z,78.15
2022-09-11T14:41:36.031Z,78.09
2022-09-11T14:45:01.846Z,78.18
2022-09-11T14:48:31.205Z,78.56
2022-09-11T14:51:31.549Z,76.00
2022-09-11T14:55:00.421Z,77.51
2022-09-11T14:58:50.335Z,78.36
2022-09-11T15:02:32.630Z,77.33
2022-09-11T15:06:14.993Z,75.98
2022-09-11T15:09:42.651Z,73.14
2022-09-11T15:13:31.227Z,75.30
2022-09-11T15:16:19.329Z,75.34
2022-09-11T15:18:47.277Z,76.66
2022-09-11T15:21:59.313Z,79.37
2022-09-11T15:25:24.675Z,78.87
2022-09-11T15:29:13.556Z,81.11
2022-09-11T15:32:09.270Z,80.55
2022-09-11T15:35:42.993Z,81.00
2022-09-11T15:38:52.126Z,80.89
2022-09-11T15:42:29.329Z,81.33
2022-09-11T15:46:17.510Z,81.35
2022-09-11T15:50:06.305Z,80.62
2022-09-11T15:53:32.550Z,80.46
2022-09-11T15:57:16.731Z,80.51
2022-09-11T16:00:52.039Z,80.68
2022-09-11T16:04:32.756Z,82.78
2022-09-11T16:08:21.469Z,83.14
2022-09-11T16:11:50.132Z,83.49
2022-09-11T16:15:38.876Z,83.13
2022-09-11T16:19:18.073Z,82.79
2022-09-11T16:22:48.991Z,84.54
2022-09-11T16:26:39.955Z,85.97
2022-09-11T16:30:42.134Z,86.89
2022-09-11T16:33:57.040Z,87.48
2022-09-11T16:37:41.712Z,88.27
2022-09-11T16:41:24.736Z,88.78
2022-09-11T16:45:11.455Z,89.37
2022-09-11T16:48:54.491Z,90.56
2022-09-11T16:52:43.186Z,90.76
2022-09-11T16:56:22.995Z,91.72
2022-09-11T17:00:03.800Z,92.12
2022-09-11T17:03:39.460Z,92.69
2022-09-11T17:07:09.183Z,91.90
2022-09-11T17:10:08.806Z,93.00
2022-09-11T17:13:33.227Z,92.23
2022-09-11T17:16:58.415Z,92.71
2022-09-11T17:20:14.291Z,92.30
2022-09-11T17:23:47.359Z,92.88
2022-09-11T17:27:23.990Z,93.31
2022-09-11T17:31:12.118Z,93.28
2022-09-11T17:34:59.859Z,94.83
2022-09-11T17:38:47.798Z,96.28
2022-09-11T17:42:12.376Z,97.32
2022-09-11T17:45:18.587Z,99.00
2022-09-11T17:48:29.846Z,99.86
2022-09-11T17:52:07.425Z,100.00
2022-09-11T17:55:56.279Z,100.00
2022-09-11T17:59:50.675Z,100.00
2022-09-11T18:03:43.561Z,100.00
2022-09-11T18:07:34.804Z,100.00
2022-09-11T18:11:10.088Z,100.00
2022-09-11T18:15:00.691Z,100.00
2022-09-11T18:18:48.705Z,100.00
2022-09-11T18:22:30.067Z,100.00
2022-09-11T18:26:19.883Z,100.00
2022-09-11T18:29:59.946Z,100.00
2022-09-11T18:33:41.698Z,100.00
2022-09-11T18:37:30.208Z,100.00
2022-09-11T18:41:01.514Z,100.00
2022-09-11T18:43:46.608Z,100.00
2022-09-11T18:47:33.575Z,100.00
2022-09-11T18:51:00.157Z,100.00
2022-09-11T18:54:53.810Z,100.00
2022-09-11T18:58:15.341Z,100.00
2022-09-11T19:01:57.934Z,100.00
2022-09-11T19:05:45.223Z,100.00
2022-09-11T19:09:24.367Z,100.00
2022-09-11T19:12:56.839Z,100.00
2022-09-11T19:16:45.474Z,100.00
2022-09-11T19:20:33.917Z,100.00
2022-09-11T19:24:22.589Z,100.00
2022-09-11T19:28:10.464Z,100.00
2022-09-11T19:32:00.321Z,100.00
2022-09-11T19:35:48.463Z,100.00
2022-09-11T19:39:14.098Z,100.00
2022-09-11T19:42:54.648Z,100.00
2022-09-11T19:46:23.477Z,100.00
2022-09-11T19:50:15.371Z,100.00
2022-09-11T19:54:03.811Z,100.00
2022-09-11T19:57:51.748Z,100.00
2022-09-11T20:01:16.876Z,100.00
2022-09-11T20:05:17.680Z,100.00
2022-09-11T20:09:29.943Z,100.00
2022-09-11T20:13:15.279Z,100.00
2022-09-11T20:17:03.098Z,100.00
2022-09-11T20:20:50.640Z,100.00
2022-09-11T20:24:22.508Z,100.00
2022-09-11T20:28:03.208Z,100.00
2022-09-11T20:31:46.872Z,100.00
2022-09-11T20:35:35.373Z,100.00
2022-09-11T20:39:23.084Z,100.00
2022-09-11T20:43:10.729Z,100.00
2022-09-11T20:46:58.076Z,100.00
2022-09-11T20:50:46.101Z,100.00
2022-09-11T20:54:34.163Z,100.00
2022-09-11T20:58:21.945Z,100.00
2022-09-11T21:02:09.982Z,100.00
2022-09-11T21:05:57.717Z,100.00
2022-09-11T21:09:48.038Z,100.00
2022-09-11T21:13:18.539Z,100.00
2022-09-11T21:17:08.034Z,100.00
2022-09-11T21:20:56.430Z,100.00
2022-09-11T21:24:44.494Z,100.00
2022-09-11T21:28:33.016Z,100.00
2022-09-11T21:32:20.738Z,100.00
2022-09-11T21:36:01.397Z,100.00
2022-09-11T21:39:49.575Z,100.00
2022-09-11T21:43:07.030Z,100.00
2022-09-11T21:46:54.726Z,100.00
2022-09-11T21:50:42.766Z,100.00
2022-09-11T21:54:32.006Z,100.00
2022-09-11T21:58:20.187Z,100.00
2022-09-11T22:02:06.779Z,100.00
2022-09-11T22:05:54.267Z,100.00
2022-09-11T22:09:31.909Z,100.00
2022-09-11T22:13:18.648Z,100.00
2022-09-11T22:17:07.073Z,100.00
2022-09-11T22:20:54.562Z,100.00
2022-09-11T22:24:42.135Z,100.00
2022-09-11T22:28:24.953Z,100.00
2022-09-11T22:32:12.898Z,100.00
2022-09-11T22:36:00.666Z,100.00
2022-09-11T22:39:14.540Z,100.00
2022-09-11T22:43:02.173Z,100.00
2022-09-11T22:46:30.289Z,100.00
2022-09-11T22:50:18.169Z,100.00
2022-09-11T22:54:05.718Z,100.00
2022-09-11T22:57:53.636Z,100.00
2022-09-11T23:01:41.342Z,100.00
2022-09-11T23:05:22.016Z,100.00
2022-09-11T23:09:09.562Z,100.00
2022-09-11T23:12:57.171Z,100.00
2022-09-11T23:16:53.387Z,100.00
2022-09-11T23:20:41.205Z,100.00
2022-09-11T23:24:28.833Z,100.00
2022-09-11T23:28:16.085Z,100.00
2022-09-11T23:31:57.421Z,100.00
2022-09-11T23:35:44.993Z,100.00
2022-09-11T23:39:32.472Z,100.00
2022-09-11T23:43:20.068Z,100.00
2022-09-11T23:47:07.476Z,100.00
2022-09-11T23:50:54.941Z,100.00
2022-09-11T23:54:43.318Z,100.00
2022-09-11T23:58:30.973Z,100.00
